sensor_id;sensor_type;location;lat;lon;timestamp;pressure;altitude;pressure_sealevel;temperature;humidity
69221;BME280;56331;51.992;20.910;2023-04-28T07:02:00;100739.80;;;20.78;32.42
69221;BME280;56331;51.992;20.910;2023-04-28T07:04:27;100746.72;;;20.78;34.49
69221;BME280;56331;51.992;20.910;2023-04-28T07:06:53;100749.15;;;20.80;34.10
69221;BME280;56331;51.992;20.910;2023-04-28T07:09:20;100742.41;;;20.83;34.48
69221;BME280;56331;51.992;20.910;2023-04-28T07:11:46;100746.06;;;20.90;34.68
69221;BME280;56331;51.992;20.910;2023-04-28T07:14:12;100747.14;;;20.91;34.49
69221;BME280;56331;51.992;20.910;2023-04-28T07:16:39;100742.83;;;20.96;34.91
69221;BME280;56331;51.992;20.910;2023-04-28T07:19:05;100732.47;;;21.00;35.08
69221;BME280;56331;51.992;20.910;2023-04-28T07:21:32;100731.16;;;21.06;34.72
69221;BME280;56331;51.992;20.910;2023-04-28T07:23:59;100734.20;;;21.07;34.59
69221;BME280;56331;51.992;20.910;2023-04-28T07:26:25;100735.00;;;21.07;34.44
69221;BME280;56331;51.992;20.910;2023-04-28T07:28:52;100736.97;;;21.07;34.49
69221;BME280;56331;51.992;20.910;2023-04-28T07:31:18;100731.97;;;21.06;34.46
69221;BME280;56331;51.992;20.910;2023-04-28T07:33:45;100738.43;;;21.04;34.23
69221;BME280;56331;51.992;20.910;2023-04-28T07:36:13;100734.02;;;21.03;34.09
69221;BME280;56331;51.992;20.910;2023-04-28T07:38:40;100737.12;;;21.02;34.02
69221;BME280;56331;51.992;20.910;2023-04-28T07:41:06;100728.05;;;20.98;33.99
69221;BME280;56331;51.992;20.910;2023-04-28T07:43:32;100729.78;;;20.97;34.00
69221;BME280;56331;51.992;20.910;2023-04-28T07:45:59;100724.25;;;20.97;34.00
69221;BME280;56331;51.992;20.910;2023-04-28T07:48:25;100724.48;;;20.98;33.81
69221;BME280;56331;51.992;20.910;2023-04-28T07:50:52;100728.63;;;20.98;33.81
69221;BME280;56331;51.992;20.910;2023-04-28T07:53:19;100728.32;;;21.00;33.54
69221;BME280;56331;51.992;20.910;2023-04-28T07:55:45;100724.66;;;21.02;33.39
69221;BME280;56331;51.992;20.910;2023-04-28T07:58:12;100721.07;;;21.10;34.11
69221;BME280;56331;51.992;20.910;2023-04-28T08:00:38;100719.59;;;21.21;34.44
69221;BME280;56331;51.992;20.910;2023-04-28T08:03:05;100722.42;;;21.27;34.74
69221;BME280;56331;51.992;20.910;2023-04-28T08:05:31;100720.06;;;21.32;34.75
69221;BME280;56331;51.992;20.910;2023-04-28T08:07:58;100713.31;;;21.35;34.87
69221;BME280;56331;51.992;20.910;2023-04-28T08:10:24;100717.06;;;21.39;34.72
69221;BME280;56331;51.992;20.910;2023-04-28T08:12:51;100714.30;;;21.39;34.62
69221;BME280;56331;51.992;20.910;2023-04-28T08:15:18;100712.16;;;21.36;34.76
69221;BME280;56331;51.992;20.910;2023-04-28T08:17:44;100709.56;;;21.40;34.86
69221;BME280;56331;51.992;20.910;2023-04-28T08:20:11;100712.09;;;21.39;34.89
69221;BME280;56331;51.992;20.910;2023-04-28T08:22:39;100709.23;;;21.41;35.18
69221;BME280;56331;51.992;20.910;2023-04-28T08:25:07;100709.47;;;21.43;35.24
69221;BME280;56331;51.992;20.910;2023-04-28T08:27:33;100709.73;;;21.44;35.16
69221;BME280;56331;51.992;20.910;2023-04-28T08:30:01;100706.61;;;21.45;35.32
69221;BME280;56331;51.992;20.910;2023-04-28T08:32:28;100700.44;;;21.48;35.63
69221;BME280;56331;51.992;20.910;2023-04-28T08:34:54;100700.66;;;21.49;35.34
69221;BME280;56331;51.992;20.910;2023-04-28T08:37:20;100700.23;;;21.53;34.76
69221;BME280;56331;51.992;20.910;2023-04-28T08:39:46;100696.56;;;21.55;34.33
69221;BME280;56331;51.992;20.910;2023-04-28T08:42:13;100685.39;;;21.58;34.22
69221;BME280;56331;51.992;20.910;2023-04-28T08:44:39;100684.98;;;21.62;33.73
69221;BME280;56331;51.992;20.910;2023-04-28T08:47:12;100688.95;;;21.67;33.42
69221;BME280;56331;51.992;20.910;2023-04-28T08:49:36;100684.63;;;21.63;32.14
69221;BME280;56331;51.992;20.910;2023-04-28T08:52:10;100682.61;;;21.58;31.91
69221;BME280;56331;51.992;20.910;2023-04-28T08:54:33;100687.48;;;21.61;31.58
69221;BME280;56331;51.992;20.910;2023-04-28T08:57:01;100680.91;;;21.59;31.06
69221;BME280;56331;51.992;20.910;2023-04-28T08:59:30;100687.63;;;21.73;31.18
69221;BME280;56331;51.992;20.910;2023-04-28T09:01:57;100687.80;;;21.77;30.96
69221;BME280;56331;51.992;20.910;2023-04-28T09:04:25;100686.28;;;21.79;30.83
69221;BME280;56331;51.992;20.910;2023-04-28T09:06:51;100681.31;;;21.79;30.97
69221;BME280;56331;51.992;20.910;2023-04-28T09:09:26;100687.58;;;21.82;30.82
69221;BME280;56331;51.992;20.910;2023-04-28T09:14:28;100672.00;;;21.83;30.63
69221;BME280;56331;51.992;20.910;2023-04-28T09:16:55;100681.39;;;21.85;30.53
69221;BME280;56331;51.992;20.910;2023-04-28T09:19:22;100680.33;;;21.83;30.67
69221;BME280;56331;51.992;20.910;2023-04-28T09:21:52;100675.36;;;21.83;30.48
69221;BME280;56331;51.992;20.910;2023-04-28T09:24:33;100675.27;;;21.85;31.43
69221;BME280;56331;51.992;20.910;2023-04-28T09:27:00;100678.75;;;21.89;30.63
69221;BME280;56331;51.992;20.910;2023-04-28T09:29:28;100675.17;;;21.88;30.42
69221;BME280;56331;51.992;20.910;2023-04-28T09:32:16;100672.98;;;21.88;30.36
69221;BME280;56331;51.992;20.910;2023-04-28T09:37:19;100663.64;;;21.92;30.59
69221;BME280;56331;51.992;20.910;2023-04-28T09:39:47;100662.02;;;21.91;30.92
69221;BME280;56331;51.992;20.910;2023-04-28T09:42:36;100655.22;;;21.95;31.08
69221;BME280;56331;51.992;20.910;2023-04-28T09:45:08;100657.19;;;21.94;31.22
69221;BME280;56331;51.992;20.910;2023-04-28T09:47:38;100654.32;;;21.97;31.41
69221;BME280;56331;51.992;20.910;2023-04-28T09:50:07;100661.98;;;21.85;29.75
69221;BME280;56331;51.992;20.910;2023-04-28T09:52:36;100651.20;;;21.83;30.52
69221;BME280;56331;51.992;20.910;2023-04-28T09:55:04;100641.69;;;21.78;30.75
69221;BME280;56331;51.992;20.910;2023-04-28T09:57:32;100648.04;;;21.79;30.95
69221;BME280;56331;51.992;20.910;2023-04-28T10:00:00;100639.00;;;21.76;31.18
69221;BME280;56331;51.992;20.910;2023-04-28T10:02:27;100641.69;;;21.78;31.48
69221;BME280;56331;51.992;20.910;2023-04-28T10:04:53;100641.98;;;21.85;31.41
69221;BME280;56331;51.992;20.910;2023-04-28T10:07:20;100632.38;;;21.83;30.77
69221;BME280;56331;51.992;20.910;2023-04-28T10:09:47;100626.83;;;21.83;30.24
69221;BME280;56331;51.992;20.910;2023-04-28T10:12:19;100629.50;;;21.85;30.67
69221;BME280;56331;51.992;20.910;2023-04-28T10:14:47;100629.44;;;21.79;31.36
69221;BME280;56331;51.992;20.910;2023-04-28T10:17:18;100615.48;;;21.82;31.95
69221;BME280;56331;51.992;20.910;2023-04-28T10:19:49;100618.98;;;21.85;32.25
69221;BME280;56331;51.992;20.910;2023-04-28T10:27:36;100619.61;;;21.91;32.55
69221;BME280;56331;51.992;20.910;2023-04-28T10:32:46;100623.77;;;21.91;32.71
69221;BME280;56331;51.992;20.910;2023-04-28T10:38:10;100615.94;;;21.93;32.81
69221;BME280;56331;51.992;20.910;2023-04-28T10:43:10;100608.26;;;21.90;32.78
69221;BME280;56331;51.992;20.910;2023-04-28T10:48:16;100603.68;;;21.94;32.86
69221;BME280;56331;51.992;20.910;2023-04-28T10:56:25;100605.35;;;21.86;32.87
69221;BME280;56331;51.992;20.910;2023-04-28T10:58:53;100600.22;;;21.82;32.75
69221;BME280;56331;51.992;20.910;2023-04-28T11:01:28;100590.29;;;21.81;32.71
69221;BME280;56331;51.992;20.910;2023-04-28T11:04:02;100584.97;;;21.82;32.63
69221;BME280;56331;51.992;20.910;2023-04-28T11:06:38;100582.77;;;21.81;32.27
69221;BME280;56331;51.992;20.910;2023-04-28T11:12:03;100578.12;;;21.79;32.10
69221;BME280;56331;51.992;20.910;2023-04-28T11:14:38;100570.65;;;21.80;31.78
69221;BME280;56331;51.992;20.910;2023-04-28T11:17:08;100578.97;;;21.80;31.49
69221;BME280;56331;51.992;20.910;2023-04-28T11:19:39;100572.58;;;21.79;31.31
69221;BME280;56331;51.992;20.910;2023-04-28T11:22:18;100564.27;;;21.79;31.05
69221;BME280;56331;51.992;20.910;2023-04-28T11:24:59;100566.81;;;21.78;30.88
69221;BME280;56331;51.992;20.910;2023-04-28T11:27:31;100566.00;;;21.78;30.92
69221;BME280;56331;51.992;20.910;2023-04-28T11:29:58;100566.59;;;21.77;30.69
69221;BME280;56331;51.992;20.910;2023-04-28T11:32:28;100561.27;;;21.78;30.37
69221;BME280;56331;51.992;20.910;2023-04-28T11:34:54;100559.08;;;21.78;30.13
69221;BME280;56331;51.992;20.910;2023-04-28T11:37:21;100561.04;;;21.77;30.04
69221;BME280;56331;51.992;20.910;2023-04-28T11:39:48;100563.81;;;21.77;30.02
69221;BME280;56331;51.992;20.910;2023-04-28T11:42:14;100561.62;;;21.77;29.99
69221;BME280;56331;51.992;20.910;2023-04-28T11:44:50;100554.69;;;21.77;29.97
69221;BME280;56331;51.992;20.910;2023-04-28T11:47:32;100550.53;;;21.77;29.81
69221;BME280;56331;51.992;20.910;2023-04-28T11:49:58;100546.37;;;21.77;29.58
69221;BME280;56331;51.992;20.910;2023-04-28T11:52:26;100551.33;;;21.77;29.49
69221;BME280;56331;51.992;20.910;2023-04-28T11:54:53;100560.23;;;21.77;29.47
69221;BME280;56331;51.992;20.910;2023-04-28T11:57:21;100547.17;;;21.77;29.42
69221;BME280;56331;51.992;20.910;2023-04-28T11:59:48;100546.37;;;21.77;29.48
69221;BME280;56331;51.992;20.910;2023-04-28T12:02:15;100545.53;;;21.76;29.71
69221;BME280;56331;51.992;20.910;2023-04-28T12:04:42;100543.34;;;21.76;29.76
69221;BME280;56331;51.992;20.910;2023-04-28T12:07:13;100541.38;;;21.76;30.04
69221;BME280;56331;51.992;20.910;2023-04-28T12:09:45;100543.34;;;21.76;30.24
69221;BME280;56331;51.992;20.910;2023-04-28T12:12:14;100541.14;;;21.75;30.41
69221;BME280;56331;51.992;20.910;2023-04-28T12:14:57;100540.56;;;21.76;30.60
69221;BME280;56331;51.992;20.910;2023-04-28T12:17:34;100541.05;;;21.78;31.09
69221;BME280;56331;51.992;20.910;2023-04-28T12:20:00;100537.21;;;21.76;31.35
69221;BME280;56331;51.992;20.910;2023-04-28T12:22:27;100530.05;;;21.75;31.29
69221;BME280;56331;51.992;20.910;2023-04-28T12:25:08;100536.53;;;21.79;32.51
69221;BME280;56331;51.992;20.910;2023-04-28T12:27:36;100525.70;;;21.80;33.58
69221;BME280;56331;51.992;20.910;2023-04-28T12:32:38;100522.95;;;21.87;35.50
69221;BME280;56331;51.992;20.910;2023-04-28T12:35:05;100523.92;;;21.91;36.34
69221;BME280;56331;51.992;20.910;2023-04-28T12:37:32;100524.50;;;21.90;36.55
69221;BME280;56331;51.992;20.910;2023-04-28T12:39:59;100514.21;;;21.91;37.33
69221;BME280;56331;51.992;20.910;2023-04-28T12:42:25;100507.50;;;21.92;37.87
69221;BME280;56331;51.992;20.910;2023-04-28T12:44:52;100512.14;;;21.94;38.28
69221;BME280;56331;51.992;20.910;2023-04-28T12:47:18;100508.21;;;21.95;38.64
69221;BME280;56331;51.992;20.910;2023-04-28T12:49:44;100496.69;;;21.99;39.22
69221;BME280;56331;51.992;20.910;2023-04-28T12:52:11;100497.07;;;22.03;39.25
69221;BME280;56331;51.992;20.910;2023-04-28T12:54:40;100487.94;;;22.03;39.49
69221;BME280;56331;51.992;20.910;2023-04-28T12:57:08;100483.42;;;22.04;39.66
69221;BME280;56331;51.992;20.910;2023-04-28T12:59:36;100494.20;;;22.06;39.72
69221;BME280;56331;51.992;20.910;2023-04-28T13:02:02;100488.77;;;22.10;39.95
69221;BME280;56331;51.992;20.910;2023-04-28T13:04:30;100493.25;;;22.08;39.77
69221;BME280;56331;51.992;20.910;2023-04-28T13:06:57;100493.84;;;22.07;40.11
69221;BME280;56331;51.992;20.910;2023-04-28T13:09:24;100484.13;;;22.07;40.00
69221;BME280;56331;51.992;20.910;2023-04-28T13:11:54;100489.08;;;22.02;39.52
69221;BME280;56331;51.992;20.910;2023-04-28T13:14:21;100484.20;;;21.99;39.28
69221;BME280;56331;51.992;20.910;2023-04-28T13:16:48;100495.08;;;21.98;38.86
69221;BME280;56331;51.992;20.910;2023-04-28T13:19:14;100480.85;;;21.99;38.47
69221;BME280;56331;51.992;20.910;2023-04-28T13:21:42;100472.42;;;22.02;38.84
69221;BME280;56331;51.992;20.910;2023-04-28T13:24:09;100474.17;;;22.00;39.91
69221;BME280;56331;51.992;20.910;2023-04-28T13:26:36;100469.55;;;22.04;39.32
69221;BME280;56331;51.992;20.910;2023-04-28T13:29:05;100465.52;;;22.08;39.25
69221;BME280;56331;51.992;20.910;2023-04-28T13:31:33;100461.34;;;22.08;39.41
69221;BME280;56331;51.992;20.910;2023-04-28T13:33:59;100465.78;;;22.15;39.34
69221;BME280;56331;51.992;20.910;2023-04-28T13:36:27;100461.30;;;22.17;38.88
69221;BME280;56331;51.992;20.910;2023-04-28T13:38:55;100455.27;;;22.15;38.45
69221;BME280;56331;51.992;20.910;2023-04-28T13:41:22;100458.14;;;22.12;38.19
69221;BME280;56331;51.992;20.910;2023-04-28T13:43:48;100454.41;;;22.08;37.75
69221;BME280;56331;51.992;20.910;2023-04-28T13:46:15;100448.75;;;22.04;37.32
69221;BME280;56331;51.992;20.910;2023-04-28T13:48:41;100453.02;;;22.02;36.48
69221;BME280;56331;51.992;20.910;2023-04-28T13:51:07;100442.27;;;22.00;36.17
69221;BME280;56331;51.992;20.910;2023-04-28T13:53:35;100442.72;;;22.02;35.60
69221;BME280;56331;51.992;20.910;2023-04-28T13:56:05;100442.50;;;22.01;35.22
69221;BME280;56331;51.992;20.910;2023-04-28T13:58:32;100426.18;;;22.00;34.65
69221;BME280;56331;51.992;20.910;2023-04-28T14:00:58;100429.53;;;21.99;34.29
69221;BME280;56331;51.992;20.910;2023-04-28T14:03:25;100429.79;;;22.00;33.90
69221;BME280;56331;51.992;20.910;2023-04-28T14:05:53;100423.41;;;22.00;33.70
69221;BME280;56331;51.992;20.910;2023-04-28T14:08:21;100419.02;;;21.99;33.58
69221;BME280;56331;51.992;20.910;2023-04-28T14:10:49;100419.34;;;21.97;33.37
69221;BME280;56331;51.992;20.910;2023-04-28T14:13:17;100414.64;;;21.98;33.08
69221;BME280;56331;51.992;20.910;2023-04-28T14:15:43;100416.34;;;21.96;32.93
69221;BME280;56331;51.992;20.910;2023-04-28T14:18:11;100421.67;;;21.95;32.89
69221;BME280;56331;51.992;20.910;2023-04-28T14:20:38;100414.48;;;21.94;32.73
69221;BME280;56331;51.992;20.910;2023-04-28T14:23:04;100411.23;;;21.92;32.56
69221;BME280;56331;51.992;20.910;2023-04-28T14:25:31;100405.47;;;21.91;32.31
69221;BME280;56331;51.992;20.910;2023-04-28T14:27:57;100405.23;;;21.90;32.25
69221;BME280;56331;51.992;20.910;2023-04-28T14:30:24;100407.17;;;21.90;32.17
69221;BME280;56331;51.992;20.910;2023-04-28T14:32:51;100408.56;;;21.90;32.07
69221;BME280;56331;51.992;20.910;2023-04-28T14:35:20;100408.81;;;21.91;31.97
69221;BME280;56331;51.992;20.910;2023-04-28T14:37:46;100406.63;;;21.90;32.02
69221;BME280;56331;51.992;20.910;2023-04-28T14:40:12;100396.34;;;21.91;32.24
69221;BME280;56331;51.992;20.910;2023-04-28T14:42:40;100393.09;;;21.89;32.36
69221;BME280;56331;51.992;20.910;2023-04-28T14:45:08;100390.53;;;21.90;32.35
69221;BME280;56331;51.992;20.910;2023-04-28T14:47:36;100384.98;;;21.90;32.51
69221;BME280;56331;51.992;20.910;2023-04-28T14:50:03;100387.22;;;21.90;32.76
69221;BME280;56331;51.992;20.910;2023-04-28T14:52:30;100386.05;;;21.91;34.10
